Time;durP1;ratioP1;P1;durP2;ratioP2;P2;SDS_P1;SDS_P2;PMS_P1;PMS_P2;Temp;Humidity;BMP_temperature;BMP_pressure;BME280_temperature;BME280_humidity;BME280_pressure;Samples;Min_cycle;Max_cycle;Signal;HPM_P1;HPM_P2
2021/12/02 00:02:24;;;;;;;4.35;1.30;;;6.00;99.90;;;5.95;60.55;98149.41;5058244;28;20521;-73
2021/12/02 00:04:53;;;;;;;3.00;1.30;;;6.00;99.90;;;5.90;61.54;98182.31;5058944;28;20205;-73
2021/12/02 00:07:21;;;;;;;2.60;1.00;;;5.90;99.90;;;5.74;62.26;98158.06;5056277;28;20242;-72
2021/12/02 00:09:50;;;;;;;4.35;1.00;;;5.80;99.90;;;5.76;61.89;98166.69;5056446;28;20181;-72
2021/12/02 00:12:34;;;;;;;5.65;1.75;;;5.70;99.90;;;5.77;62.05;98162.94;5060996;28;20693;-76
2021/12/02 00:15:06;;;;;;;3.40;1.67;;;5.70;99.90;;;5.82;60.97;98163.03;5058197;28;20223;-77
2021/12/02 00:17:38;;;;;;;3.38;1.10;;;5.80;99.90;;;5.87;60.90;98179.28;5057593;28;20223;-75
2021/12/02 00:23:34;;;;;;;7.80;1.58;;;5.80;99.90;;;5.92;60.53;98182.06;5056418;28;20200;-76
2021/12/02 00:26:38;;;;;;;4.18;1.15;;;5.90;99.90;;;5.86;60.67;98177.63;5042618;28;20219;-75
2021/12/02 00:29:23;;;;;;;4.32;1.13;;;5.90;99.90;;;5.88;60.46;98202.38;5056950;28;20193;-74
2021/12/02 00:31:53;;;;;;;2.63;0.90;;;5.80;99.90;;;5.86;60.29;98204.44;5073127;28;20193;-74
2021/12/02 00:34:22;;;;;;;1.52;0.80;;;5.80;99.90;;;5.84;61.30;98228.03;5056163;28;20212;-74
2021/12/02 00:36:51;;;;;;;4.63;1.00;;;5.80;99.90;;;5.59;63.94;98261.31;5056225;28;20169;-76
2021/12/02 00:39:21;;;;;;;4.32;1.20;;;5.70;99.90;;;5.02;67.52;98241.47;5056982;28;20263;-73
2021/12/02 00:41:50;;;;;;;5.10;0.95;;;5.20;99.90;;;4.78;69.40;98253.19;5057040;28;20181;-73
2021/12/02 00:44:19;;;;;;;4.47;1.20;;;4.90;99.90;;;4.43;71.76;98292.38;5056221;28;20228;-74
2021/12/02 00:46:50;;;;;;;3.97;0.90;;;4.70;99.90;;;4.18;74.18;98292.50;5057124;28;20177;-74
2021/12/02 00:49:20;;;;;;;1.00;0.70;;;4.40;99.90;;;3.90;75.38;98296.53;5060043;28;20207;-71
2021/12/02 00:51:56;;;;;;;2.65;0.85;;;4.10;99.90;;;3.70;75.85;98290.56;5062009;28;20181;-73
2021/12/02 00:54:27;;;;;;;1.45;0.75;;;3.90;99.90;;;3.62;76.20;98288.19;5076842;28;20214;-74
2021/12/02 00:56:56;;;;;;;1.40;0.93;;;3.80;99.90;;;3.60;76.61;98295.59;5058695;28;20193;-74
2021/12/02 00:59:29;;;;;;;2.40;0.80;;;3.70;99.90;;;3.63;76.81;98316.53;5060741;28;20181;-73
2021/12/02 01:02:00;;;;;;;2.25;0.80;;;3.70;99.90;;;3.54;76.60;98304.47;5056076;28;20181;-73
2021/12/02 01:04:28;;;;;;;1.70;0.70;;;3.60;99.90;;;3.53;76.60;98316.25;5056181;28;20219;-73
2021/12/02 01:06:56;;;;;;;1.80;0.90;;;3.60;99.90;;;3.54;76.92;98339.22;5056003;28;20204;-73
2021/12/02 01:09:25;;;;;;;2.55;0.80;;;3.60;99.90;;;3.59;76.56;98314.50;5056331;28;20169;-71
2021/12/02 01:11:55;;;;;;;2.55;0.80;;;3.60;99.90;;;3.60;75.89;98303.59;5072085;28;20712;-73
2021/12/02 01:14:24;;;;;;;2.35;0.95;;;3.60;99.90;;;3.60;74.59;98308.97;5057488;28;20220;-74
2021/12/02 01:16:53;;;;;;;1.63;0.93;;;3.60;99.90;;;3.64;73.93;98312.81;5071956;28;20207;-74
2021/12/02 01:19:24;;;;;;;1.58;0.60;;;3.60;99.90;;;3.69;73.00;98328.19;5072238;28;20192;-73
2021/12/02 01:21:55;;;;;;;1.00;0.60;;;3.70;99.90;;;3.76;70.37;98324.44;5073426;28;20207;-74
2021/12/02 01:24:27;;;;;;;2.13;0.60;;;3.70;99.90;;;3.86;68.86;98337.31;5072600;28;20232;-72
2021/12/02 01:26:56;;;;;;;0.90;0.63;;;3.80;99.90;;;3.88;68.23;98336.03;5071828;28;20193;-73
2021/12/02 01:29:26;;;;;;;1.15;0.80;;;3.90;99.90;;;3.89;68.77;98342.22;5071458;28;20177;-74
2021/12/02 01:31:59;;;;;;;2.70;0.57;;;3.90;99.90;;;3.96;67.77;98347.50;5072277;28;20268;-73
2021/12/02 01:34:30;;;;;;;1.05;0.70;;;3.90;99.90;;;3.98;66.17;98345.41;5071066;28;20232;-73
2021/12/02 01:36:58;;;;;;;1.00;0.60;;;4.00;92.30;;;3.97;66.95;98343.78;5056151;28;20177;-73
2021/12/02 01:39:28;;;;;;;6.13;0.80;;;4.00;95.40;;;3.99;66.36;98347.06;5055766;28;20623;-73
2021/12/02 01:42:00;;;;;;;2.28;0.70;;;4.00;92.60;;;3.96;66.53;98342.16;5056333;28;20260;-73
2021/12/02 01:44:29;;;;;;;1.63;0.70;;;4.00;91.70;;;3.91;65.88;98350.84;5055449;28;20209;-73
2021/12/02 01:47:01;;;;;;;2.95;0.77;;;3.90;86.30;;;3.89;65.33;98356.41;5056105;28;20177;-74
2021/12/02 01:49:36;;;;;;;1.20;0.80;;;3.90;82.00;;;3.84;65.52;98334.03;5057764;28;20181;-73
2021/12/02 01:52:11;;;;;;;2.95;1.05;;;3.90;81.20;;;3.88;64.37;98367.31;5057021;28;20204;-73
2021/12/02 01:54:45;;;;;;;1.38;0.80;;;3.90;71.30;;;3.88;64.35;98362.78;5057090;28;20212;-72
2021/12/02 01:57:29;;;;;;;2.20;0.90;;;3.90;68.70;;;3.84;63.56;98353.56;5055386;28;20169;-72
2021/12/02 02:00:10;;;;;;;1.42;0.70;;;3.90;59.40;;;3.85;63.25;98351.72;5056015;28;20175;-73
2021/12/02 02:02:43;;;;;;;3.72;0.60;;;3.90;56.90;;;3.89;63.52;98372.47;5053300;28;20189;-73
2021/12/02 02:05:16;;;;;;;1.15;0.70;;;3.90;57.60;;;3.84;63.70;98366.94;5053747;28;20212;-73
2021/12/02 02:07:58;;;;;;;2.05;0.70;;;3.90;58.90;;;3.80;64.52;98364.94;5053782;28;20188;-74
2021/12/02 02:10:30;;;;;;;1.23;0.85;;;3.80;62.80;;;3.74;64.72;98361.28;5053700;28;20216;-74
2021/12/02 02:13:03;;;;;;;1.63;0.70;;;3.80;64.80;;;3.77;64.87;98371.56;5053588;28;20208;-72
2021/12/02 02:15:32;;;;;;;1.73;0.73;;;3.80;68.80;;;3.72;65.25;98381.28;5053636;28;20185;-72
2021/12/02 02:18:05;;;;;;;4.20;0.70;;;3.70;69.80;;;3.72;64.70;98390.13;5053896;28;20585;-74
2021/12/02 02:20:49;;;;;;;2.10;0.82;;;3.80;67.80;;;3.67;65.26;98378.44;5054258;28;20672;-73
2021/12/02 02:23:18;;;;;;;2.47;0.90;;;3.70;70.70;;;3.62;65.43;98394.31;5053489;28;20209;-73
2021/12/02 02:25:49;;;;;;;1.80;0.90;;;3.70;74.30;;;3.55;65.24;98389.00;5053423;28;20204;-73
2021/12/02 02:28:17;;;;;;;1.33;0.60;;;3.60;73.50;;;3.60;65.28;98386.50;5053429;28;20176;-73
2021/12/02 02:30:46;;;;;;;2.47;0.80;;;3.60;73.90;;;3.63;65.88;98386.06;5053424;28;20676;-73
2021/12/02 02:33:16;;;;;;;1.13;0.70;;;3.70;77.70;;;3.70;65.88;98397.53;5053037;28;20204;-73
2021/12/02 02:35:48;;;;;;;3.15;0.90;;;3.70;80.70;;;3.66;66.62;98399.00;5053305;28;20164;-72
2021/12/02 02:38:17;;;;;;;2.03;0.80;;;3.70;86.60;;;3.63;67.05;98418.13;5053276;28;20231;-72
2021/12/02 02:40:48;;;;;;;7.03;1.13;;;3.70;92.50;;;3.66;67.65;98407.03;5053534;28;20184;-72
2021/12/02 02:43:23;;;;;;;4.90;0.90;;;3.70;95.30;;;3.63;67.86;98415.47;5052918;28;20208;-74
2021/12/02 02:45:52;;;;;;;2.90;0.82;;;3.70;97.40;;;3.61;68.30;98414.88;5053158;28;20196;-72
2021/12/02 02:48:20;;;;;;;2.58;1.20;;;3.70;99.90;;;3.63;68.59;98420.03;5053126;28;20751;-72
2021/12/02 02:50:50;;;;;;;2.85;1.20;;;3.70;99.90;;;3.60;68.66;98415.91;5053283;28;20226;-73
2021/12/02 02:53:24;;;;;;;3.47;0.90;;;3.60;99.90;;;3.56;69.04;98417.38;5060377;28;20213;-74
2021/12/02 02:56:02;;;;;;;2.38;0.95;;;3.60;99.90;;;3.57;68.72;98413.69;5060027;28;20173;-72
2021/12/02 02:58:42;;;;;;;2.03;0.80;;;3.60;99.90;;;3.52;69.07;98421.53;5054911;28;20242;-75
2021/12/02 03:01:24;;;;;;;6.60;0.93;;;3.60;99.90;;;3.63;68.35;98412.78;5053066;28;20212;-75
2021/12/02 03:04:02;;;;;;;4.38;1.10;;;3.60;99.90;;;3.59;68.54;98424.97;5054841;28;20205;-74
2021/12/02 03:06:38;;;;;;;3.42;1.42;;;3.60;99.90;;;3.60;67.77;98413.25;5053914;28;20696;-73
2021/12/02 03:09:09;;;;;;;5.03;1.05;;;3.60;99.00;;;3.61;67.87;98414.88;5053138;28;20543;-73
2021/12/02 03:11:45;;;;;;;5.78;1.50;;;3.70;99.30;;;3.70;66.96;98429.63;5053176;28;20263;-74
2021/12/02 03:14:18;;;;;;;3.10;1.20;;;3.70;94.70;;;3.70;67.09;98423.44;5053224;28;20220;-74
2021/12/02 03:16:47;;;;;;;2.65;0.82;;;3.70;94.10;;;3.69;66.87;98433.31;5055452;28;20237;-75
2021/12/02 03:19:23;;;;;;;3.08;0.80;;;3.70;94.10;;;3.66;67.18;98433.78;5055865;28;20184;-76
2021/12/02 03:21:53;;;;;;;5.70;0.85;;;3.70;93.70;;;3.68;66.90;98437.03;5055423;28;20177;-74
2021/12/02 03:24:23;;;;;;;2.25;1.23;;;3.70;93.60;;;3.74;67.33;98444.19;5052376;28;20704;-74
2021/12/02 03:37:42;;;;;;;2.30;0.80;;;3.60;99.90;;;3.52;68.85;98469.66;5067998;28;20572;-72
2021/12/02 03:40:12;;;;;;;3.55;1.23;;;3.60;99.90;;;3.54;68.79;98478.28;5052464;28;20169;-72
2021/12/02 03:42:47;;;;;;;5.47;1.55;;;3.60;99.90;;;3.54;68.82;98478.28;5052583;28;20173;-73
2021/12/02 03:45:16;;;;;;;2.22;1.00;;;3.60;99.90;;;3.50;69.05;98472.53;5052798;28;20641;-72
2021/12/02 03:47:45;;;;;;;3.00;1.65;;;3.60;99.90;;;3.50;69.41;98480.56;5052452;28;20550;-73
2021/12/02 03:50:14;;;;;;;4.20;0.95;;;3.60;99.90;;;3.53;68.90;98511.41;5053587;28;20575;-74
2021/12/02 03:52:43;;;;;;;3.60;1.30;;;3.50;99.90;;;3.54;69.35;98493.50;5054069;28;20173;-73
2021/12/02 03:55:12;;;;;;;1.63;1.05;;;3.60;99.90;;;3.53;69.54;98495.38;5054289;28;20196;-73
2021/12/02 03:57:40;;;;;;;4.15;0.90;;;3.50;99.90;;;3.57;68.85;98499.25;5053186;28;20169;-72
2021/12/02 04:00:09;;;;;;;2.28;1.08;;;3.60;99.90;;;3.57;69.41;98504.59;5053187;28;20177;-73
2021/12/02 04:02:41;;;;;;;1.77;0.80;;;3.60;99.90;;;3.65;68.64;98512.34;5052989;28;20264;-72
2021/12/02 04:05:10;;;;;;;3.20;0.93;;;3.60;99.90;;;3.60;68.85;98516.69;5052719;28;20211;-73
2021/12/02 04:07:45;;;;;;;1.48;0.80;;;3.60;99.90;;;3.57;69.33;98511.78;5052283;28;20201;-73
2021/12/02 04:10:14;;;;;;;3.90;0.90;;;3.60;99.90;;;3.59;67.63;98517.72;5050845;28;20216;-75
2021/12/02 04:12:50;;;;;;;2.63;0.90;;;3.60;99.30;;;3.54;68.27;98518.38;5052361;28;20209;-72
2021/12/02 04:15:23;;;;;;;3.45;1.08;;;3.60;99.90;;;3.48;68.85;98527.28;5055618;28;20173;-72
2021/12/02 04:17:52;;;;;;;2.08;0.90;;;3.50;99.90;;;3.41;69.23;98526.47;5055601;28;20169;-73
2021/12/02 04:20:25;;;;;;;1.90;0.90;;;3.50;99.90;;;3.42;69.23;98533.47;5070906;28;20197;-73
2021/12/02 04:22:57;;;;;;;1.50;0.80;;;3.50;99.90;;;3.36;69.15;98534.31;5054867;28;20608;-73
2021/12/02 04:25:28;;;;;;;1.90;1.00;;;3.40;99.90;;;3.36;69.46;98540.50;5055642;28;20173;-73
2021/12/02 04:27:56;;;;;;;2.00;1.15;;;3.40;99.90;;;3.40;68.84;98546.22;5055550;28;20193;-72
2021/12/02 04:30:28;;;;;;;5.70;1.05;;;3.40;99.90;;;3.38;69.35;98559.00;5056049;28;20185;-73
2021/12/02 04:32:57;;;;;;;2.17;0.88;;;3.40;99.90;;;3.34;69.38;98553.22;5070903;28;20262;-72
2021/12/02 04:35:26;;;;;;;1.38;1.08;;;3.40;99.90;;;3.34;68.84;98576.50;5054249;28;20579;-73
2021/12/02 04:37:56;;;;;;;2.95;1.10;;;3.40;99.90;;;3.32;69.32;98559.84;5055422;28;20192;-73
2021/12/02 04:40:24;;;;;;;3.60;1.30;;;3.30;99.90;;;3.28;69.43;98569.31;5055499;28;20185;-73
2021/12/02 04:42:54;;;;;;;3.65;0.90;;;3.30;99.90;;;3.26;68.91;98560.69;5055191;28;20181;-73
2021/12/02 04:45:22;;;;;;;3.03;0.85;;;3.30;99.90;;;3.24;68.54;98576.13;5054988;28;20173;-73
2021/12/02 04:47:50;;;;;;;2.10;1.00;;;3.30;99.90;;;3.20;69.06;98593.59;5055103;28;20203;-73
2021/12/02 04:50:19;;;;;;;1.38;0.80;;;3.30;99.90;;;3.12;69.20;98597.31;5055089;28;20233;-73
2021/12/02 04:52:49;;;;;;;4.18;1.10;;;3.20;99.90;;;3.09;68.35;98578.22;5055735;28;20192;-73
2021/12/02 04:55:20;;;;;;;3.00;1.08;;;3.20;99.90;;;3.10;68.29;98590.56;5055035;28;20187;-73
2021/12/02 04:57:49;;;;;;;1.83;0.82;;;3.10;99.90;;;3.02;68.95;98600.44;5055126;28;20173;-73
2021/12/02 05:00:18;;;;;;;4.75;1.23;;;3.10;99.90;;;2.95;68.94;98596.94;5055108;28;20177;-74
2021/12/02 05:02:46;;;;;;;3.22;1.00;;;3.00;99.90;;;2.94;68.80;98600.66;5053849;28;20204;-74
2021/12/02 05:05:16;;;;;;;3.38;1.30;;;3.00;99.90;;;2.89;68.98;98600.47;5055414;28;20183;-74
2021/12/02 05:07:45;;;;;;;3.28;1.80;;;3.00;99.90;;;2.84;69.39;98602.94;5055647;28;20208;-75
2021/12/02 05:10:13;;;;;;;2.22;0.80;;;2.90;99.90;;;2.84;68.65;98610.13;5056513;28;20638;-73
2021/12/02 05:12:43;;;;;;;1.65;1.42;;;2.90;99.90;;;2.87;68.46;98609.69;5056243;28;20177;-73
2021/12/02 05:15:11;;;;;;;4.50;1.40;;;2.90;99.90;;;2.85;68.25;98612.59;5057367;28;20183;-74
2021/12/02 05:17:40;;;;;;;1.77;0.95;;;2.90;99.30;;;2.83;68.41;98619.16;5070886;28;20181;-74
2021/12/02 05:20:10;;;;;;;3.70;1.02;;;2.90;99.90;;;2.76;68.95;98624.50;5054790;28;20713;-74
2021/12/02 05:22:38;;;;;;;1.30;0.90;;;2.90;99.90;;;2.73;69.27;98614.25;5055034;28;20837;-74
2021/12/02 05:25:09;;;;;;;1.48;0.88;;;2.80;99.90;;;2.69;69.50;98623.72;5054364;28;20219;-74
2021/12/02 05:27:38;;;;;;;2.33;1.23;;;2.80;99.90;;;2.69;69.38;98623.72;5054802;28;20193;-74
2021/12/02 05:30:10;;;;;;;2.22;0.80;;;2.80;99.90;;;2.71;69.47;98624.31;5053942;28;20189;-75
2021/12/02 05:32:39;;;;;;;2.60;0.93;;;2.80;99.90;;;2.73;69.14;98638.28;5054555;28;20684;-74
2021/12/02 05:35:09;;;;;;;2.65;1.17;;;2.80;99.90;;;2.72;69.34;98643.81;5054114;28;20291;-74
2021/12/02 05:37:37;;;;;;;1.75;0.90;;;2.80;99.90;;;2.69;69.10;98666.44;5054675;28;20173;-75
2021/12/02 05:40:07;;;;;;;4.22;1.00;;;2.80;99.90;;;2.69;68.98;98646.91;5054368;28;20235;-74
2021/12/02 05:42:37;;;;;;;1.20;0.80;;;2.70;99.90;;;2.66;69.16;98661.50;5054163;28;20646;-74
2021/12/02 05:45:08;;;;;;;1.77;1.30;;;2.70;99.90;;;2.61;69.05;98675.44;5053653;28;20204;-75
2021/12/02 05:47:36;;;;;;;5.35;1.00;;;2.70;99.90;;;2.63;68.68;98672.59;5069321;28;20208;-75
2021/12/02 05:50:06;;;;;;;2.50;1.30;;;2.70;99.90;;;2.58;68.47;98681.22;5069326;28;20193;-74
2021/12/02 05:52:35;;;;;;;1.40;0.90;;;2.60;99.90;;;2.62;67.87;98681.63;5055195;28;20626;-73
2021/12/02 05:55:04;;;;;;;3.83;1.23;;;2.70;97.70;;;2.65;67.55;98694.56;5054984;28;20205;-75
2021/12/02 05:57:32;;;;;;;2.22;0.75;;;2.70;96.10;;;2.65;67.70;98688.41;5055066;28;20173;-74
2021/12/02 06:00:01;;;;;;;2.72;1.20;;;2.70;95.40;;;2.63;67.20;98688.59;5055257;28;20184;-75
2021/12/02 06:02:40;;;;;;;2.88;1.13;;;2.70;94.30;;;2.63;66.66;98683.25;5054039;28;20240;-74
2021/12/02 06:05:09;;;;;;;2.05;1.00;;;2.70;91.50;;;2.65;66.89;98691.06;5054269;28;20212;-75
2021/12/02 06:07:38;;;;;;;1.60;0.85;;;2.70;92.20;;;2.69;67.06;98698.47;5054144;28;20204;-75
2021/12/02 06:10:08;;;;;;;6.30;1.35;;;2.70;92.20;;;2.74;66.45;98700.53;5053939;28;20177;-75
2021/12/02 06:13:34;;;;;;;1.90;1.08;;;2.70;90.70;;;2.81;66.21;98704.03;5053723;28;20287;-73
2021/12/02 06:21:38;;;;;;;1.00;0.90;;;2.80;84.70;;;2.84;66.19;98728.47;4982773;28;20198;-74
2021/12/02 06:24:08;;;;;;;1.25;0.85;;;2.90;86.50;;;2.86;66.35;98728.25;5055601;28;20225;-74
2021/12/02 06:26:37;;;;;;;6.88;2.08;;;2.90;86.20;;;2.85;67.11;98729.31;5056018;28;20177;-74
2021/12/02 06:29:06;;;;;;;3.45;2.10;;;2.90;89.20;;;2.84;66.63;98741.00;5057436;28;20193;-73
2021/12/02 06:31:55;;;;;;;1.98;1.30;;;2.90;90.20;;;2.89;67.06;98754.56;5056739;28;20593;-74
2021/12/02 06:34:23;;;;;;;1.75;1.05;;;2.90;91.60;;;2.87;66.38;98738.75;5059949;28;20208;-73
2021/12/02 06:36:53;;;;;;;2.25;1.10;;;2.90;90.50;;;2.86;66.86;98763.78;5071977;28;20185;-73
2021/12/02 06:39:21;;;;;;;3.67;1.30;;;2.90;90.40;;;2.82;66.92;98767.91;5070672;28;20176;-76
2021/12/02 06:41:50;;;;;;;2.15;1.50;;;2.90;91.70;;;2.74;66.94;98760.09;5087435;28;20200;-73
2021/12/02 06:44:18;;;;;;;2.92;1.65;;;2.80;91.10;;;2.71;67.47;98755.16;5079278;28;20247;-73
2021/12/02 06:46:47;;;;;;;4.05;1.45;;;2.80;92.40;;;2.57;67.77;98764.16;5087252;28;20172;-73
2021/12/02 06:49:15;;;;;;;1.83;1.08;;;2.70;94.20;;;2.53;68.44;98778.94;5086158;28;20735;-72
2021/12/02 06:51:44;;;;;;;2.30;1.38;;;2.60;96.70;;;2.48;68.48;98770.72;5087426;28;20180;-74
2021/12/02 06:54:16;;;;;;;2.65;1.10;;;2.60;97.80;;;2.44;68.96;98786.34;5077592;28;20269;-73
2021/12/02 06:56:52;;;;;;;1.90;1.00;;;2.50;99.90;;;2.42;69.06;98780.34;5075509;28;20192;-74
2021/12/02 06:59:20;;;;;;;3.45;1.45;;;2.50;99.90;;;2.43;69.11;98790.00;5076065;28;20169;-74
2021/12/02 07:01:49;;;;;;;3.00;1.05;;;2.50;99.90;;;2.44;68.78;98796.19;5073838;28;20187;-74
2021/12/02 07:04:18;;;;;;;3.08;1.17;;;2.50;99.90;;;2.45;68.15;98806.66;5073305;28;20210;-74
2021/12/02 07:06:46;;;;;;;1.60;1.05;;;2.50;99.00;;;2.47;67.99;98811.81;5073737;28;20184;-74
2021/12/02 07:09:22;;;;;;;2.55;1.55;;;2.50;97.70;;;2.48;68.19;98813.44;5073981;28;20196;-74
2021/12/02 07:11:50;;;;;;;2.00;1.10;;;2.50;98.70;;;2.56;68.04;98815.94;5072767;28;20168;-74
2021/12/02 07:14:20;;;;;;;1.60;1.38;;;2.60;98.60;;;2.53;68.02;98824.34;5076201;28;20759;-73
2021/12/02 07:16:49;;;;;;;1.88;1.10;;;2.60;97.90;;;2.56;67.81;98827.44;5075536;28;20203;-74
2021/12/02 07:19:18;;;;;;;4.10;1.50;;;2.60;97.00;;;2.63;67.57;98832.78;5076066;28;20217;-73
2021/12/02 07:21:46;;;;;;;3.28;1.50;;;2.60;96.00;;;2.56;66.95;98835.47;5054757;28;20201;-74
2021/12/02 07:24:17;;;;;;;2.35;1.23;;;2.60;93.00;;;2.54;67.25;98844.69;5051719;28;20270;-74
2021/12/02 07:27:07;;;;;;;1.65;1.00;;;2.60;93.10;;;2.41;67.69;98840.13;5052437;28;20191;-73
2021/12/02 07:29:35;;;;;;;3.53;1.52;;;2.50;93.10;;;2.39;67.96;98836.00;5052803;28;20197;-75
2021/12/02 07:32:05;;;;;;;1.95;1.75;;;2.50;95.20;;;2.39;67.81;98852.84;5053166;28;20181;-73
2021/12/02 07:34:37;;;;;;;2.15;1.20;;;2.50;94.80;;;2.44;67.48;98855.72;5053018;28;20207;-73
2021/12/02 07:37:05;;;;;;;5.18;1.75;;;2.50;94.70;;;2.48;67.09;98866.81;5051288;28;20284;-73
2021/12/02 07:39:34;;;;;;;3.22;1.60;;;2.50;92.40;;;2.48;66.70;98872.16;5052884;28;20263;-73
2021/12/02 07:42:24;;;;;;;1.90;1.33;;;2.50;91.00;;;2.61;66.22;98877.56;5053263;28;20630;-73
2021/12/02 07:44:53;;;;;;;1.45;0.90;;;2.60;90.10;;;2.66;66.23;98872.47;5069052;28;20232;-73
2021/12/02 07:47:21;;;;;;;5.70;1.17;;;2.70;86.40;;;2.78;65.83;98881.53;5053321;28;20169;-73
2021/12/02 07:49:51;;;;;;;3.75;1.60;;;2.70;84.20;;;2.88;65.33;98900.66;5056102;28;20677;-73
2021/12/02 07:52:25;;;;;;;1.70;1.05;;;2.80;79.40;;;2.79;65.54;98893.03;5056855;28;20691;-74
2021/12/02 07:54:56;;;;;;;3.10;1.55;;;2.80;74.80;;;2.74;65.60;98898.16;5056404;28;20214;-74
2021/12/02 07:57:26;;;;;;;2.10;1.30;;;2.80;75.60;;;2.73;64.97;98902.66;5056715;28;20188;-74
2021/12/02 07:59:55;;;;;;;2.60;1.70;;;2.80;70.50;;;2.73;65.02;98912.53;5074511;28;20180;-75
2021/12/02 08:02:28;;;;;;;2.78;1.20;;;2.80;69.80;;;2.78;64.79;98912.75;5096742;28;20180;-74
2021/12/02 08:04:56;;;;;;;6.15;1.40;;;2.80;68.90;;;2.69;64.57;98912.09;5096963;28;20207;-74
2021/12/02 08:07:25;;;;;;;3.75;2.42;;;2.70;63.30;;;2.71;64.78;98922.59;5096162;28;20211;-75
2021/12/02 08:09:55;;;;;;;2.42;1.15;;;2.80;64.70;;;2.71;64.61;98925.28;5088556;28;20207;-74
2021/12/02 08:12:25;;;;;;;2.72;1.30;;;2.70;63.80;;;2.74;64.77;98925.69;5076864;28;20184;-73
2021/12/02 08:14:53;;;;;;;1.75;1.10;;;2.70;65.10;;;2.82;64.76;98938.84;5076264;28;20261;-74
2021/12/02 08:17:22;;;;;;;3.17;1.10;;;2.80;65.40;;;2.77;64.48;98930.63;5076560;28;20180;-73
2021/12/02 08:19:51;;;;;;;4.60;1.65;;;2.80;63.50;;;2.74;64.91;98944.38;5075991;28;20203;-74
2021/12/02 08:22:20;;;;;;;4.43;1.90;;;2.80;64.50;;;2.70;64.98;98953.00;5074664;28;20188;-75
2021/12/02 08:24:48;;;;;;;4.07;2.25;;;2.70;65.30;;;2.75;64.97;98964.72;5075520;28;20204;-73
2021/12/02 08:27:17;;;;;;;4.95;2.47;;;2.80;65.80;;;2.68;64.67;98969.19;5074588;28;20391;-74
2021/12/02 08:29:50;;;;;;;2.55;1.30;;;2.70;63.70;;;2.72;64.25;98969.63;5075784;28;20196;-74
2021/12/02 08:32:18;;;;;;;3.40;1.38;;;2.70;60.50;;;2.71;63.63;98987.47;5074980;28;20202;-73
2021/12/02 08:34:47;;;;;;;2.25;1.27;;;2.70;57.40;;;2.76;63.86;98987.72;5075801;28;20226;-75
2021/12/02 08:37:17;;;;;;;2.90;2.65;;;2.80;57.50;;;2.69;63.82;98986.88;5075673;28;20251;-73
2021/12/02 08:39:47;;;;;;;3.20;1.58;;;2.80;56.20;;;2.81;64.04;98990.63;5074783;28;20196;-73
2021/12/02 08:42:16;;;;;;;2.90;1.50;;;2.80;57.30;;;2.70;64.04;98999.22;5075711;28;20599;-73
2021/12/02 08:44:49;;;;;;;2.75;1.75;;;2.80;56.10;;;2.73;63.95;99012.16;5075007;28;20212;-74
2021/12/02 08:47:21;;;;;;;4.88;1.55;;;2.80;56.40;;;2.59;64.01;99005.09;5075647;28;20251;-72
2021/12/02 08:49:54;;;;;;;1.65;1.20;;;2.70;54.90;;;2.71;63.63;99000.84;5075609;28;20231;-72
2021/12/02 08:52:23;;;;;;;9.23;2.33;;;2.70;55.20;;;2.62;64.33;99018.88;5075713;28;20172;-74
2021/12/02 08:54:53;;;;;;;6.60;2.30;;;2.60;55.40;;;2.63;64.07;99014.38;5075580;28;20215;-73
2021/12/02 08:57:41;;;;;;;4.03;1.90;;;2.70;55.80;;;2.65;63.82;99022.19;5075442;28;20207;-75
2021/12/02 09:00:14;;;;;;;2.75;1.10;;;2.70;54.40;;;2.42;63.62;99022.47;5073342;28;20632;-74
2021/12/02 09:02:47;;;;;;;4.97;1.60;;;2.50;52.00;;;2.55;63.54;99019.88;5074165;28;20192;-75
2021/12/02 09:05:16;;;;;;;3.17;1.33;;;2.60;54.00;;;2.60;63.43;99036.97;5075352;28;20204;-74
2021/12/02 09:07:47;;;;;;;1.77;1.25;;;2.60;52.70;;;2.56;63.42;99033.03;5074725;28;20184;-75
2021/12/02 09:10:37;;;;;;;6.93;1.88;;;2.60;52.10;;;2.53;63.21;99040.59;5073683;28;20185;-76
2021/12/02 09:13:10;;;;;;;1.92;1.10;;;2.60;50.70;;;2.58;63.31;99038.16;5090105;28;20216;-75
2021/12/02 09:15:49;;;;;;;3.45;1.13;;;2.60;51.30;;;2.54;63.24;99050.25;5074913;28;20561;-73
2021/12/02 09:18:34;;;;;;;2.75;1.88;;;2.60;49.80;;;2.70;63.42;99051.81;5074412;28;20242;-76
2021/12/02 09:21:07;;;;;;;2.85;1.40;;;2.70;51.70;;;2.71;62.78;99064.94;5074345;28;20188;-75
2021/12/02 09:23:36;;;;;;;3.13;1.25;;;2.70;49.30;;;2.45;63.03;99060.25;5074176;28;20212;-75
2021/12/02 09:26:07;;;;;;;11.07;1.67;;;2.60;47.10;;;2.47;62.82;99063.53;5074245;28;20254;-74
2021/12/02 09:28:36;;;;;;;4.03;2.03;;;2.50;47.10;;;2.50;63.01;99057.00;5074191;28;20569;-75
2021/12/02 09:31:05;;;;;;;2.85;1.33;;;2.50;48.60;;;2.56;63.20;99066.91;5093087;28;20190;-74
2021/12/02 09:33:35;;;;;;;3.70;1.10;;;2.60;49.00;;;2.60;62.41;99062.84;5095551;28;20203;-75
2021/12/02 09:36:07;;;;;;;2.95;1.52;;;2.60;46.40;;;2.62;62.61;99058.09;5094620;28;20184;-74
2021/12/02 09:38:36;;;;;;;2.05;1.40;;;2.60;46.40;;;2.64;61.31;99064.09;5094675;28;20203;-74
2021/12/02 09:41:04;;;;;;;4.72;1.50;;;2.70;43.00;;;2.59;61.40;99062.00;5093383;28;20652;-73
2021/12/02 09:43:33;;;;;;;7.93;4.65;;;2.60;42.10;;;2.74;61.68;99066.41;5094310;28;20203;-75
2021/12/02 09:46:02;;;;;;;5.63;2.40;;;2.70;43.20;;;2.75;60.74;99066.22;5093546;28;20196;-75
2021/12/02 09:48:32;;;;;;;8.10;5.20;;;2.80;40.20;;;2.76;60.92;99070.50;5095087;28;20226;-76
2021/12/02 09:51:08;;;;;;;5.50;3.28;;;2.80;39.90;;;2.75;60.51;99074.22;5077985;28;20195;-74
2021/12/02 09:53:58;;;;;;;2.53;1.73;;;2.80;38.00;;;2.75;59.92;99063.53;5075914;28;20688;-76
2021/12/02 09:56:31;;;;;;;3.60;2.20;;;2.80;36.40;;;2.84;60.01;99064.22;5074489;28;20192;-75
2021/12/02 09:59:05;;;;;;;2.90;1.77;;;2.90;36.70;;;2.87;59.51;99075.31;5074045;28;20199;-74
2021/12/02 10:01:40;;;;;;;3.40;2.28;;;2.90;34.90;;;3.00;59.56;99078.06;5074469;28;20175;-75
2021/12/02 10:04:10;;;;;;;3.08;1.20;;;3.00;35.40;;;3.06;59.53;99079.13;5074453;28;20653;-76
2021/12/02 10:06:42;;;;;;;2.20;1.25;;;3.10;34.80;;;2.93;58.86;99074.53;5074595;28;20184;-75
2021/12/02 10:09:19;;;;;;;2.20;1.63;;;3.00;32.60;;;3.02;58.86;99084.03;5073284;28;20200;-75
2021/12/02 10:11:57;;;;;;;2.80;1.60;;;3.10;32.80;;;3.03;59.04;99084.88;5074064;28;20568;-75
2021/12/02 10:14:32;;;;;;;4.68;1.60;;;3.10;32.80;;;3.13;58.74;99088.00;5073231;28;20246;-76
2021/12/02 10:17:14;;;;;;;3.40;1.20;;;3.20;32.70;;;3.25;59.10;99098.94;5075319;28;20176;-75
2021/12/02 10:20:12;;;;;;;4.63;1.55;;;3.20;33.30;;;3.20;58.87;99102.22;5074027;28;20237;-74
2021/12/02 10:23:03;;;;;;;2.90;1.50;;;3.30;31.70;;;3.39;58.79;99095.28;5074847;28;20187;-76
2021/12/02 10:25:33;;;;;;;4.22;1.00;;;3.30;32.40;;;3.22;58.51;99102.03;5076052;28;20516;-77
2021/12/02 10:28:04;;;;;;;5.05;2.00;;;3.30;31.10;;;3.16;58.85;99106.31;5074608;28;20228;-76
2021/12/02 10:30:33;;;;;;;7.13;1.98;;;3.20;30.80;;;3.15;59.24;99107.31;5073602;28;20210;-74
2021/12/02 10:33:02;;;;;;;4.55;1.92;;;3.20;31.90;;;3.22;59.23;99107.38;5074229;28;20650;-74
2021/12/02 10:35:43;;;;;;;1.83;1.50;;;3.20;31.80;;;3.31;58.89;99119.53;5073632;28;20176;-75
2021/12/02 10:38:36;;;;;;;2.15;1.60;;;3.30;32.10;;;3.30;58.57;99117.88;5073740;28;20169;-75
2021/12/02 10:41:08;;;;;;;2.55;1.60;;;3.30;30.90;;;3.24;58.63;99124.03;5073406;28;20196;-73
2021/12/02 10:43:57;;;;;;;6.25;2.58;;;3.30;31.00;;;3.23;58.65;99119.72;5073288;28;20251;-74
2021/12/02 10:46:26;;;;;;;10.88;2.78;;;3.30;30.60;;;3.21;58.94;99119.06;5079692;28;20388;-75
2021/12/02 10:48:55;;;;;;;4.22;1.92;;;3.20;30.50;;;3.37;58.44;99113.41;5080842;28;20192;-74
2021/12/02 10:51:45;;;;;;;4.63;2.70;;;3.30;30.10;;;3.63;58.14;99123.38;5078197;28;20231;-74
2021/12/02 10:54:18;;;;;;;2.08;1.67;;;3.50;30.50;;;3.38;58.47;99120.41;5074041;28;20295;-74
2021/12/02 10:56:50;;;;;;;2.72;1.30;;;3.50;29.50;;;3.53;58.26;99115.75;5074085;28;20180;-72
2021/12/02 10:59:43;;;;;;;6.18;2.00;;;3.50;29.80;;;3.74;57.93;99114.75;5073251;28;20176;-74
2021/12/02 11:02:26;;;;;;;2.35;1.35;;;3.70;30.00;;;3.68;57.92;99127.09;5070817;28;20196;-74
2021/12/02 11:04:59;;;;;;;2.40;1.40;;;3.70;29.30;;;3.70;57.61;99124.22;5072224;28;20208;-73
2021/12/02 11:07:33;;;;;;;4.70;1.73;;;3.70;28.80;;;3.80;56.96;99124.66;5071731;28;20563;-73
2021/12/02 11:10:08;;;;;;;2.83;1.48;;;3.80;28.40;;;3.68;57.67;99124.41;5072689;28;20253;-73
2021/12/02 11:12:41;;;;;;;3.88;2.15;;;3.70;28.70;;;3.76;57.59;99129.59;5073019;28;20189;-73
2021/12/02 11:15:14;;;;;;;5.15;1.70;;;3.70;28.50;;;3.65;57.56;99138.19;5053717;22;20233;-68